createdAt,value
2022-12-17T00:00:27.971Z,99062.13
2022-12-17T00:03:16.218Z,99068.97
2022-12-17T00:06:04.533Z,99076.91
2022-12-17T00:08:49.743Z,99072.41
2022-12-17T00:11:37.617Z,99069.75
2022-12-17T00:14:23.557Z,99074.16
2022-12-17T00:17:11.869Z,99081.16
2022-12-17T00:19:59.704Z,99088.94
2022-12-17T00:22:44.969Z,99094.06
2022-12-17T00:25:30.157Z,99090.69
2022-12-17T00:28:16.989Z,99083.53
2022-12-17T00:31:04.590Z,99091.19
2022-12-17T00:33:49.909Z,99101.25
2022-12-17T00:36:35.131Z,99100.28
2022-12-17T00:39:23.066Z,99106.38
2022-12-17T00:42:08.586Z,99112.53
2022-12-17T00:44:56.195Z,99124.34
2022-12-17T00:47:45.433Z,99122.63
2022-12-17T00:50:30.713Z,99123.56
2022-12-17T00:53:15.958Z,99127.19
2022-12-17T00:56:01.266Z,99124.63
2022-12-17T00:58:47.977Z,99126.22
2022-12-17T01:01:34.975Z,99124.47
2022-12-17T01:04:20.273Z,99135.56
2022-12-17T01:07:05.503Z,99135.66
2022-12-17T01:09:50.920Z,99136.47
2022-12-17T01:12:38.840Z,99146.25
2022-12-17T01:15:25.491Z,99155.81
2022-12-17T01:18:12.401Z,99157.56
2022-12-17T01:20:57.495Z,99156.69
2022-12-17T01:23:43.033Z,99153.19
2022-12-17T01:26:28.459Z,99156.69
2022-12-17T01:29:15.763Z,99156.63
2022-12-17T01:32:01.668Z,99163.56
2022-12-17T01:34:48.359Z,99154.06
2022-12-17T01:37:36.040Z,99161.88
2022-12-17T01:40:21.424Z,99158.41
2022-12-17T01:43:07.103Z,99166.16
2022-12-17T01:45:57.591Z,99169.59
2022-12-17T01:48:48.362Z,99163.66
2022-12-17T01:51:37.511Z,99174.81
2022-12-17T01:54:24.019Z,99175.75
2022-12-17T01:57:09.649Z,99182.59
2022-12-17T02:00:01.878Z,99191.13
2022-12-17T02:02:50.594Z,99196.34
2022-12-17T02:05:47.588Z,99192.94
2022-12-17T02:08:43.815Z,99197.25
2022-12-17T02:11:36.240Z,99207.56
2022-12-17T02:14:31.954Z,99202.34
2022-12-17T02:17:23.095Z,99203.19
2022-12-17T02:20:23.124Z,99208.34
2022-12-17T02:23:14.328Z,99215.31
2022-12-17T02:26:10.000Z,99213.66
2022-12-17T02:29:04.758Z,99218.78
2022-12-17T02:31:52.809Z,99216.19
2022-12-17T02:34:42.420Z,99223.94
2022-12-17T02:37:29.001Z,99225.63
2022-12-17T02:40:14.390Z,99229.94
2022-12-17T02:43:01.324Z,99230.81
2022-12-17T02:45:54.807Z,99233.38
2022-12-17T02:48:41.504Z,99230.78
2022-12-17T02:51:28.800Z,99234.25
2022-12-17T02:54:14.135Z,99248.81
2022-12-17T02:56:59.314Z,99241.97
2022-12-17T02:59:44.718Z,99243.69
2022-12-17T03:02:35.623Z,99252.22
2022-12-17T03:05:44.019Z,99243.66
2022-12-17T03:08:27.217Z,99256.53
2022-12-17T03:11:12.509Z,99253.13
2022-12-17T03:13:57.759Z,99266.81
2022-12-17T03:16:43.123Z,99273.69
2022-12-17T03:19:30.349Z,99273.69
2022-12-17T03:22:15.802Z,99277.16
2022-12-17T03:25:01.240Z,99277.13
2022-12-17T03:27:48.998Z,99274.56
2022-12-17T03:30:36.190Z,99275.44
2022-12-17T03:33:22.570Z,99285.72
2022-12-17T03:36:12.914Z,99278.00
2022-12-17T03:38:58.430Z,99277.97
2022-12-17T03:41:44.202Z,99282.28
2022-12-17T03:44:29.444Z,99284.84
2022-12-17T03:47:14.733Z,99289.09
2022-12-17T03:50:02.363Z,99291.69
2022-12-17T03:52:51.399Z,99294.25
2022-12-17T03:55:38.816Z,99290.81
2022-12-17T03:58:24.385Z,99291.63
2022-12-17T04:01:09.533Z,99285.56
2022-12-17T04:03:57.107Z,99289.78
2022-12-17T04:06:42.278Z,99290.66
2022-12-17T04:09:29.145Z,99294.13
2022-12-17T04:12:14.330Z,99286.31
2022-12-17T04:14:59.582Z,99302.75
2022-12-17T04:17:44.765Z,99306.13
2022-12-17T04:20:32.607Z,99313.84
2022-12-17T04:23:17.850Z,99318.25
2022-12-17T04:26:07.080Z,99322.56
2022-12-17T04:28:52.283Z,99322.50
2022-12-17T04:31:37.509Z,99330.97
2022-12-17T04:34:22.798Z,99327.63
2022-12-17T04:37:08.482Z,99331.00
2022-12-17T04:39:53.742Z,99332.69
2022-12-17T04:42:40.582Z,99331.69
2022-12-17T04:45:26.897Z,99330.78
2022-12-17T04:48:19.646Z,99325.63
2022-12-17T04:51:05.235Z,99333.34
2022-12-17T04:53:53.489Z,99339.28
2022-12-17T04:56:40.375Z,99348.78
2022-12-17T04:59:32.767Z,99346.97
2022-12-17T05:02:18.179Z,99349.53
2022-12-17T05:05:03.503Z,99357.38
2022-12-17T05:07:51.345Z,99352.16
2022-12-17T05:10:33.207Z,99361.50
2022-12-17T05:13:19.751Z,99358.97
2022-12-17T05:16:06.251Z,99367.72
2022-12-17T05:18:51.652Z,99360.78
2022-12-17T05:21:37.345Z,99368.47
2022-12-17T05:24:23.144Z,99361.00
2022-12-17T05:27:08.565Z,99367.75
2022-12-17T05:29:53.767Z,99375.47
2022-12-17T05:32:40.314Z,99367.75
2022-12-17T05:35:26.541Z,99376.66
2022-12-17T05:38:12.334Z,99371.47
2022-12-17T05:40:57.914Z,99376.47
2022-12-17T05:43:42.996Z,99376.56
2022-12-17T05:46:28.230Z,99376.50
2022-12-17T05:49:15.262Z,99385.19
2022-12-17T05:52:00.475Z,99384.25
2022-12-17T05:54:45.730Z,99389.41
2022-12-17T05:57:30.867Z,99396.97
2022-12-17T06:00:16.195Z,99402.19
2022-12-17T06:03:01.719Z,99398.59
2022-12-17T06:05:48.345Z,99395.03
2022-12-17T06:08:33.693Z,99408.91
2022-12-17T06:11:19.631Z,99408.91
2022-12-17T06:14:07.694Z,99414.13
2022-12-17T06:16:52.781Z,99416.72
2022-12-17T06:19:40.580Z,99423.53
2022-12-17T06:22:27.319Z,99415.69
2022-12-17T06:25:13.014Z,99417.59
2022-12-17T06:27:58.356Z,99413.56
2022-12-17T06:30:43.778Z,99422.81
2022-12-17T06:33:30.295Z,99426.22
2022-12-17T06:36:22.086Z,99426.94
2022-12-17T06:39:09.373Z,99433.00
2022-12-17T06:42:02.065Z,99433.19
2022-12-17T06:44:49.079Z,99430.69
2022-12-17T06:47:34.658Z,99431.63
2022-12-17T06:50:22.705Z,99441.75
2022-12-17T06:53:29.159Z,99443.47
2022-12-17T06:56:18.451Z,99446.06
2022-12-17T06:59:04.579Z,99440.84
2022-12-17T07:01:49.981Z,99449.41
2022-12-17T07:04:35.318Z,99450.34
2022-12-17T07:07:20.713Z,99456.38
2022-12-17T07:10:13.690Z,99463.25
2022-12-17T07:13:01.357Z,99473.56
2022-12-17T07:15:46.850Z,99467.38
2022-12-17T07:18:43.496Z,99469.13
2022-12-17T07:21:28.781Z,99475.28
2022-12-17T07:24:14.206Z,99481.41
2022-12-17T07:26:59.646Z,99479.84
2022-12-17T07:30:00.788Z,99486.66
2022-12-17T07:32:52.000Z,99493.63
2022-12-17T07:35:37.882Z,99486.59
2022-12-17T07:38:24.251Z,99494.28
2022-12-17T07:41:09.409Z,99504.75
2022-12-17T07:43:54.683Z,99502.25
2022-12-17T07:46:41.318Z,99519.34
2022-12-17T07:49:26.584Z,99508.00
2022-12-17T07:52:12.393Z,99516.53
2022-12-17T07:54:54.366Z,99514.03
2022-12-17T07:57:39.793Z,99524.25
2022-12-17T08:00:26.528Z,99530.41
2022-12-17T08:03:16.438Z,99532.91
2022-12-17T08:06:04.763Z,99537.22
2022-12-17T08:08:49.971Z,99551.75
2022-12-17T08:11:35.192Z,99551.81
2022-12-17T08:14:20.563Z,99553.63
2022-12-17T08:17:05.905Z,99557.06
2022-12-17T08:19:52.524Z,99560.47
2022-12-17T08:22:37.771Z,99567.41
2022-12-17T08:25:24.031Z,99575.91
2022-12-17T08:28:41.232Z,99574.28
2022-12-17T08:31:20.488Z,99573.47
2022-12-17T08:34:08.088Z,99579.44
2022-12-17T08:36:54.970Z,99581.94
2022-12-17T08:39:40.919Z,99591.25
2022-12-17T08:42:26.268Z,99585.13
2022-12-17T08:45:11.433Z,99589.28
2022-12-17T08:48:02.070Z,99584.84
2022-12-17T08:51:04.185Z,99592.59
2022-12-17T08:53:51.113Z,99601.34
2022-12-17T08:56:36.583Z,99609.97
2022-12-17T08:59:22.322Z,99614.19
2022-12-17T09:02:08.334Z,99609.97
2022-12-17T09:04:53.990Z,99609.03
2022-12-17T09:07:39.246Z,99609.78
2022-12-17T09:10:27.028Z,99616.56
2022-12-17T09:13:12.504Z,99623.91
2022-12-17T09:15:58.148Z,99625.53
2022-12-17T09:18:43.398Z,99627.25
2022-12-17T09:21:28.625Z,99627.31
2022-12-17T09:24:15.710Z,99620.56
2022-12-17T09:27:08.945Z,99623.06
2022-12-17T09:30:07.042Z,99625.75
2022-12-17T09:32:55.090Z,99636.97
2022-12-17T09:35:41.107Z,99635.91
2022-12-17T09:38:30.212Z,99632.69
2022-12-17T09:41:24.022Z,99629.84
2022-12-17T09:44:19.994Z,99640.25
2022-12-17T09:47:12.025Z,99642.53
2022-12-17T09:49:57.979Z,99640.69
2022-12-17T09:52:50.116Z,99638.25
2022-12-17T09:55:39.449Z,99642.66
2022-12-17T09:58:29.830Z,99632.78
2022-12-17T10:01:17.425Z,99638.00
2022-12-17T10:04:05.774Z,99637.09
2022-12-17T10:06:52.151Z,99630.88
2022-12-17T10:09:38.377Z,99625.38
2022-12-17T10:12:33.121Z,99625.59
2022-12-17T10:15:18.387Z,99621.78
2022-12-17T10:18:08.208Z,99620.22
2022-12-17T10:20:59.785Z,99623.31
2022-12-17T10:23:49.324Z,99631.81
2022-12-17T10:26:36.881Z,99633.59
2022-12-17T10:29:29.881Z,99629.25
2022-12-17T10:32:17.785Z,99633.59
2022-12-17T10:35:05.802Z,99632.78
2022-12-17T10:37:53.912Z,99630.88
2022-12-17T10:40:44.356Z,99630.19
2022-12-17T10:43:47.252Z,99625.31
2022-12-17T10:46:41.515Z,99624.38
2022-12-17T10:49:32.809Z,99628.84
2022-12-17T10:52:22.075Z,99634.03
2022-12-17T10:55:17.233Z,99626.53
2022-12-17T10:58:02.795Z,99629.97
2022-12-17T11:00:50.902Z,99630.69
2022-12-17T11:03:57.772Z,99625.19
2022-12-17T11:06:48.185Z,99635.34
2022-12-17T11:09:46.261Z,99635.50
2022-12-17T11:12:34.752Z,99634.09
2022-12-17T11:15:30.985Z,99644.19
2022-12-17T11:18:16.998Z,99645.22
2022-12-17T11:21:09.022Z,99645.13
2022-12-17T11:24:00.477Z,99644.34
2022-12-17T11:26:51.090Z,99640.84
2022-12-17T11:29:36.432Z,99643.28
2022-12-17T11:32:51.957Z,99648.88
2022-12-17T11:35:42.061Z,99653.09
2022-12-17T11:38:40.342Z,99647.56
2022-12-17T11:41:37.265Z,99647.09
2022-12-17T11:44:33.613Z,99651.66
2022-12-17T11:47:34.790Z,99649.69
2022-12-17T11:50:31.170Z,99654.59
2022-12-17T11:53:27.884Z,99649.94
2022-12-17T11:56:24.351Z,99650.38
2022-12-17T11:59:11.801Z,99645.59
2022-12-17T12:02:04.540Z,99654.41
2022-12-17T12:05:05.170Z,99657.72
2022-12-17T12:07:59.029Z,99653.09
2022-12-17T12:10:54.603Z,99657.63
2022-12-17T12:13:47.911Z,99654.19
2022-12-17T12:16:43.880Z,99646.84
2022-12-17T12:19:39.642Z,99650.91
2022-12-17T12:22:33.994Z,99652.75
2022-12-17T12:25:37.088Z,99648.47
2022-12-17T12:28:29.095Z,99652.50
2022-12-17T12:31:27.989Z,99648.44
2022-12-17T12:34:18.959Z,99646.03
2022-12-17T12:37:08.268Z,99652.09
2022-12-17T12:39:59.227Z,99651.25
2022-12-17T12:42:52.162Z,99655.66
2022-12-17T12:45:49.694Z,99648.84
2022-12-17T12:48:47.270Z,99646.94
2022-12-17T12:51:38.220Z,99642.44
2022-12-17T12:57:17.811Z,99640.22
2022-12-17T13:00:08.168Z,99644.47
2022-12-17T13:02:54.052Z,99650.53
2022-12-17T13:05:40.444Z,99654.34
2022-12-17T13:09:53.996Z,99647.97
2022-12-17T13:12:34.109Z,99641.44
2022-12-17T13:15:19.128Z,99640.31
2022-12-17T13:17:57.114Z,99637.63
2022-12-17T13:20:30.964Z,99641.13
2022-12-17T13:23:27.787Z,99642.00
2022-12-17T13:26:20.967Z,99633.88
2022-12-17T13:29:04.089Z,99639.09
2022-12-17T13:31:42.258Z,99640.19
2022-12-17T13:34:18.145Z,99642.38
2022-12-17T13:36:54.658Z,99641.59
2022-12-17T13:39:35.231Z,99628.44
2022-12-17T13:42:04.263Z,99636.66
2022-12-17T13:44:40.075Z,99635.59
2022-12-17T13:47:22.207Z,99633.84
2022-12-17T13:50:31.552Z,99644.44
2022-12-17T13:52:41.871Z,99633.16
2022-12-17T13:55:11.790Z,99638.78
2022-12-17T13:57:39.783Z,99636.13
2022-12-17T14:00:21.046Z,99652.84
2022-12-17T14:02:49.182Z,99640.38
2022-12-17T14:05:26.847Z,99639.53
2022-12-17T14:07:55.474Z,99652.09
2022-12-17T14:10:23.435Z,99657.50
2022-12-17T14:12:51.198Z,99665.72
2022-12-17T14:15:25.621Z,99667.72
2022-12-17T14:17:55.254Z,99671.13
2022-12-17T14:20:26.138Z,99665.81
2022-12-17T14:22:56.806Z,99669.53
2022-12-17T14:25:27.250Z,99671.16
2022-12-17T14:27:57.386Z,99670.94
2022-12-17T14:30:40.300Z,99672.47
2022-12-17T14:33:28.032Z,99680.59
2022-12-17T14:36:01.648Z,99679.75
2022-12-17T14:38:38.774Z,99677.13
2022-12-17T14:41:34.514Z,99683.38
2022-12-17T14:44:03.792Z,99680.78
2022-12-17T14:46:34.861Z,99676.34
2022-12-17T14:49:05.878Z,99679.09
2022-12-17T14:51:36.481Z,99683.50
2022-12-17T14:54:25.732Z,99676.50
2022-12-17T14:56:57.744Z,99677.31
2022-12-17T14:59:33.595Z,99672.16
2022-12-17T15:02:06.222Z,99672.25
2022-12-17T15:04:34.888Z,99680.94
2022-12-17T15:07:03.029Z,99679.41
2022-12-17T15:09:31.245Z,99672.63
2022-12-17T15:11:59.180Z,99677.75
2022-12-17T15:14:27.052Z,99687.41
2022-12-17T15:16:55.887Z,99682.34
2022-12-17T15:19:25.232Z,99687.66
2022-12-17T15:21:53.213Z,99698.16
2022-12-17T15:24:22.150Z,99687.69
2022-12-17T15:26:50.603Z,99695.53
2022-12-17T15:29:18.361Z,99694.59
2022-12-17T15:31:46.286Z,99701.44
2022-12-17T15:34:14.137Z,99705.03
2022-12-17T15:36:43.430Z,99701.56
2022-12-17T15:39:12.339Z,99703.31
2022-12-17T15:41:54.057Z,99699.81
2022-12-17T15:44:24.006Z,99706.91
2022-12-17T15:46:51.832Z,99704.31
2022-12-17T15:49:22.768Z,99706.91
2022-12-17T15:51:51.967Z,99710.38
2022-12-17T15:54:19.839Z,99707.81
2022-12-17T15:56:53.662Z,99700.06
2022-12-17T15:59:21.705Z,99713.00
2022-12-17T16:01:49.934Z,99719.91
2022-12-17T16:04:24.472Z,99719.03
2022-12-17T16:06:54.833Z,99725.97
2022-12-17T16:09:24.456Z,99726.84
2022-12-17T16:11:54.423Z,99724.31
2022-12-17T16:14:22.585Z,99737.16
2022-12-17T16:16:52.972Z,99734.56
2022-12-17T16:19:24.641Z,99745.69
2022-12-17T16:21:56.429Z,99734.56
2022-12-17T16:24:24.645Z,99741.44
2022-12-17T16:26:52.564Z,99739.75
2022-12-17T16:29:20.529Z,99743.22
2022-12-17T16:31:49.819Z,99747.53
2022-12-17T16:34:17.934Z,99740.66
2022-12-17T16:36:45.857Z,99738.94
2022-12-17T16:39:19.068Z,99744.97
2022-12-17T16:41:47.350Z,99739.78
2022-12-17T16:44:15.214Z,99740.66
2022-12-17T16:46:46.413Z,99734.63
2022-12-17T16:49:16.809Z,99739.63
2022-12-17T16:51:45.637Z,99743.09
2022-12-17T16:54:15.843Z,99743.16
2022-12-17T16:56:46.769Z,99745.69
2022-12-17T16:59:16.494Z,99744.84
2022-12-17T17:01:46.190Z,99743.03
2022-12-17T17:04:16.382Z,99751.59
2022-12-17T17:06:46.104Z,99744.75
2022-12-17T17:09:15.009Z,99750.66
2022-12-17T17:11:46.989Z,99749.00
2022-12-17T17:14:22.626Z,99745.56
2022-12-17T17:16:50.713Z,99753.31
2022-12-17T17:19:19.654Z,99755.09
2022-12-17T17:21:51.759Z,99755.13
2022-12-17T17:24:23.000Z,99767.13
2022-12-17T17:26:52.388Z,99771.44
2022-12-17T17:29:22.375Z,99770.34
2022-12-17T17:32:09.815Z,99773.00
2022-12-17T17:34:38.360Z,99784.13
2022-12-17T17:37:06.567Z,99780.75
2022-12-17T17:39:34.766Z,99783.41
2022-12-17T17:42:03.131Z,99785.16
2022-12-17T17:44:32.548Z,99782.47
2022-12-17T17:47:00.625Z,99779.88
2022-12-17T17:49:28.898Z,99782.56
2022-12-17T17:52:12.569Z,99785.72
2022-12-17T17:54:40.779Z,99790.78
2022-12-17T17:57:09.508Z,99782.28
2022-12-17T17:59:41.292Z,99792.69
2022-12-17T18:02:11.812Z,99791.13
2022-12-17T18:04:39.942Z,99800.53
2022-12-17T18:09:56.915Z,99789.19
2022-12-17T18:12:57.164Z,99784.84
2022-12-17T18:15:26.497Z,99784.00
2022-12-17T18:17:54.381Z,99788.50
2022-12-17T18:20:22.233Z,99789.44
2022-12-17T18:22:50.562Z,99792.66
2022-12-17T18:25:18.831Z,99797.78
2022-12-17T18:27:46.787Z,99792.56
2022-12-17T18:30:16.423Z,99790.94
2022-12-17T18:32:45.996Z,99789.94
2022-12-17T18:35:14.104Z,99796.69
2022-12-17T18:37:42.674Z,99790.47
2022-12-17T18:40:11.610Z,99796.75
2022-12-17T18:42:56.784Z,99795.66
2022-12-17T18:45:25.014Z,99801.81
2022-12-17T18:47:54.645Z,99801.00
2022-12-17T18:50:25.717Z,99796.84
2022-12-17T18:52:53.661Z,99810.72
2022-12-17T18:55:21.560Z,99815.75
2022-12-17T18:57:49.415Z,99827.50
2022-12-17T19:00:17.582Z,99818.13
2022-12-17T19:02:45.585Z,99818.28
2022-12-17T19:05:15.033Z,99825.22
2022-12-17T19:07:45.271Z,99825.34
2022-12-17T19:10:13.271Z,99830.50
2022-12-17T19:12:44.232Z,99821.91
2022-12-17T19:15:12.193Z,99825.75
2022-12-17T19:17:40.148Z,99821.16
2022-12-17T19:20:11.482Z,99824.56
2022-12-17T19:22:40.792Z,99830.44
2022-12-17T19:25:09.408Z,99841.84
2022-12-17T19:27:37.280Z,99846.31
2022-12-17T19:30:06.171Z,99847.31
2022-12-17T19:32:33.933Z,99845.72
2022-12-17T19:35:01.995Z,99855.16
2022-12-17T19:37:32.116Z,99856.09
2022-12-17T19:40:01.373Z,99861.25
2022-12-17T19:42:37.302Z,99865.69
2022-12-17T19:45:09.433Z,99863.16
2022-12-17T19:47:37.254Z,99870.63
2022-12-17T19:50:06.106Z,99869.63
2022-12-17T19:52:34.125Z,99874.06
2022-12-17T19:55:03.397Z,99873.19
2022-12-17T19:57:35.526Z,99875.78
2022-12-17T20:00:03.483Z,99864.59
2022-12-17T20:02:40.712Z,99863.59
2022-12-17T20:05:09.598Z,99861.78
2022-12-17T20:07:38.340Z,99861.03
2022-12-17T20:10:08.363Z,99861.94
2022-12-17T20:12:36.179Z,99869.63
2022-12-17T20:15:04.920Z,99874.81
2022-12-17T20:17:32.799Z,99867.53
2022-12-17T20:20:00.647Z,99868.22
2022-12-17T20:22:28.545Z,99864.97
2022-12-17T20:24:56.558Z,99860.41
2022-12-17T20:27:25.918Z,99863.56
2022-12-17T20:29:54.306Z,99863.66
2022-12-17T20:32:24.701Z,99862.94
2022-12-17T20:34:53.072Z,99851.94
2022-12-17T20:37:21.096Z,99845.16
2022-12-17T20:39:49.825Z,99845.16
2022-12-17T20:42:19.014Z,99856.25
2022-12-17T20:44:53.245Z,99856.28
2022-12-17T20:47:21.843Z,99851.28
2022-12-17T20:49:49.773Z,99844.22
2022-12-17T20:52:17.673Z,99839.06
2022-12-17T20:54:45.564Z,99851.38
2022-12-17T20:57:13.687Z,99851.25
2022-12-17T20:59:41.777Z,99868.72
2022-12-17T21:02:14.259Z,99865.59
2022-12-17T21:04:42.161Z,99864.94
2022-12-17T21:07:09.985Z,99873.22
2022-12-17T21:09:37.877Z,99862.53
2022-12-17T21:12:05.999Z,99847.78
2022-12-17T21:14:35.866Z,99848.66
2022-12-17T21:17:05.081Z,99853.97
2022-12-17T21:19:36.879Z,99858.53
2022-12-17T21:22:08.345Z,99859.41
2022-12-17T21:24:37.171Z,99858.00
2022-12-17T21:27:09.586Z,99856.25
2022-12-17T21:29:40.942Z,99845.00
2022-12-17T21:32:09.426Z,99849.91
2022-12-17T21:34:38.839Z,99856.97
2022-12-17T21:37:07.085Z,99863.97
2022-12-17T21:39:37.654Z,99864.81
2022-12-17T21:42:23.344Z,99865.75
2022-12-17T21:44:51.320Z,99870.06
2022-12-17T21:47:19.460Z,99876.84
2022-12-17T21:49:51.342Z,99873.53
2022-12-17T21:52:19.175Z,99872.28
2022-12-17T21:54:47.602Z,99868.97
2022-12-17T21:57:15.501Z,99870.75
2022-12-17T21:59:44.133Z,99873.41
2022-12-17T22:02:12.340Z,99879.44
2022-12-17T22:04:40.645Z,99889.81
2022-12-17T22:07:11.580Z,99889.91
2022-12-17T22:09:59.148Z,99882.44
2022-12-17T22:12:55.144Z,99884.06
2022-12-17T22:15:23.141Z,99887.88
2022-12-17T22:17:59.423Z,99887.47
2022-12-17T22:20:27.932Z,99891.19
2022-12-17T22:22:57.127Z,99889.50
2022-12-17T22:25:27.301Z,99887.88
2022-12-17T22:27:55.227Z,99886.13
2022-12-17T22:30:40.483Z,99878.22
2022-12-17T22:33:33.267Z,99878.91
2022-12-17T22:37:41.554Z,99889.66
2022-12-17T22:42:55.351Z,99892.25
2022-12-17T22:44:35.211Z,99883.72
2022-12-17T22:44:54.124Z,99884.91
2022-12-17T22:47:23.762Z,99894.63
2022-12-17T22:49:51.698Z,99890.09
2022-12-17T22:52:20.368Z,99892.81
2022-12-17T22:54:50.085Z,99889.75
2022-12-17T22:57:35.942Z,99881.19
2022-12-17T23:00:11.822Z,99890.41
2022-12-17T23:02:39.980Z,99878.38
2022-12-17T23:05:08.506Z,99880.34
2022-12-17T23:07:36.845Z,99879.69
2022-12-17T23:10:07.277Z,99876.13
2022-12-17T23:12:54.193Z,99877.03
2022-12-17T23:15:26.880Z,99881.56
2022-12-17T23:17:57.038Z,99877.00
2022-12-17T23:20:25.971Z,99892.78
2022-12-17T23:22:57.829Z,99894.69
2022-12-17T23:25:29.158Z,99892.75
2022-12-17T23:27:57.187Z,99889.28
2022-12-17T23:30:25.355Z,99894.22
2022-12-17T23:32:53.468Z,99897.38
2022-12-17T23:35:21.497Z,99896.88
2022-12-17T23:37:50.272Z,99892.56
2022-12-17T23:40:18.285Z,99896.16
2022-12-17T23:42:47.604Z,99900.97
2022-12-17T23:45:18.147Z,99891.22
2022-12-17T23:47:46.198Z,99904.09
2022-12-17T23:50:14.289Z,99897.75
2022-12-17T23:52:42.128Z,99888.19
2022-12-17T23:55:11.735Z,99893.84
2022-12-17T23:57:40.497Z,99899.03
